sensor_id;sensor_type;location;lat;lon;timestamp;temperature;humidity
44823;DHT22;51097;51.984;5.650;2023-04-24T00:01:22;13.10;99.90
44823;DHT22;51097;51.984;5.650;2023-04-24T00:03:47;13.10;99.90
44823;DHT22;51097;51.984;5.650;2023-04-24T00:06:13;13.10;99.90
44823;DHT22;51097;51.984;5.650;2023-04-24T00:08:38;13.00;99.90
44823;DHT22;51097;51.984;5.650;2023-04-24T00:11:04;13.10;99.90
44823;DHT22;51097;51.984;5.650;2023-04-24T00:13:29;13.00;99.90
44823;DHT22;51097;51.984;5.650;2023-04-24T00:15:56;13.00;99.90
44823;DHT22;51097;51.984;5.650;2023-04-24T00:18:21;13.10;99.90
44823;DHT22;51097;51.984;5.650;2023-04-24T00:20:47;13.00;99.90
44823;DHT22;51097;51.984;5.650;2023-04-24T00:23:13;13.10;99.90
44823;DHT22;51097;51.984;5.650;2023-04-24T00:25:38;13.10;99.90
44823;DHT22;51097;51.984;5.650;2023-04-24T00:28:05;13.00;99.90
44823;DHT22;51097;51.984;5.650;2023-04-24T00:30:31;13.10;99.90
44823;DHT22;51097;51.984;5.650;2023-04-24T00:32:57;13.00;99.90
44823;DHT22;51097;51.984;5.650;2023-04-24T00:35:22;12.90;99.90
44823;DHT22;51097;51.984;5.650;2023-04-24T00:37:48;12.90;99.90
44823;DHT22;51097;51.984;5.650;2023-04-24T00:40:14;12.90;99.90
44823;DHT22;51097;51.984;5.650;2023-04-24T00:42:40;12.90;99.90
44823;DHT22;51097;51.984;5.650;2023-04-24T00:45:06;12.90;99.90
44823;DHT22;51097;51.984;5.650;2023-04-24T00:47:33;13.00;99.90
44823;DHT22;51097;51.984;5.650;2023-04-24T00:49:58;12.90;99.90
44823;DHT22;51097;51.984;5.650;2023-04-24T00:52:25;12.90;99.90
44823;DHT22;51097;51.984;5.650;2023-04-24T00:54:51;12.90;99.90
44823;DHT22;51097;51.984;5.650;2023-04-24T00:57:17;12.90;99.90
44823;DHT22;51097;51.984;5.650;2023-04-24T00:59:43;12.90;99.90
44823;DHT22;51097;51.984;5.650;2023-04-24T01:02:10;12.90;99.90
44823;DHT22;51097;51.984;5.650;2023-04-24T01:04:36;12.80;99.90
44823;DHT22;51097;51.984;5.650;2023-04-24T01:07:02;12.60;99.90
44823;DHT22;51097;51.984;5.650;2023-04-24T01:09:28;12.70;99.90
44823;DHT22;51097;51.984;5.650;2023-04-24T01:11:54;12.70;99.90
44823;DHT22;51097;51.984;5.650;2023-04-24T01:14:20;12.70;99.90
44823;DHT22;51097;51.984;5.650;2023-04-24T01:16:46;12.70;99.90
44823;DHT22;51097;51.984;5.650;2023-04-24T01:19:13;12.80;99.90
44823;DHT22;51097;51.984;5.650;2023-04-24T01:21:42;12.90;99.90
44823;DHT22;51097;51.984;5.650;2023-04-24T01:24:08;12.80;99.90
44823;DHT22;51097;51.984;5.650;2023-04-24T01:26:34;12.90;99.90
44823;DHT22;51097;51.984;5.650;2023-04-24T01:29:00;12.90;99.90
44823;DHT22;51097;51.984;5.650;2023-04-24T01:31:26;12.90;99.90
44823;DHT22;51097;51.984;5.650;2023-04-24T01:33:52;12.90;99.90
44823;DHT22;51097;51.984;5.650;2023-04-24T01:36:19;13.00;99.90
44823;DHT22;51097;51.984;5.650;2023-04-24T01:38:45;12.90;99.90
44823;DHT22;51097;51.984;5.650;2023-04-24T01:41:10;13.00;99.90
44823;DHT22;51097;51.984;5.650;2023-04-24T01:43:36;12.90;99.90
44823;DHT22;51097;51.984;5.650;2023-04-24T01:46:02;13.10;99.90
44823;DHT22;51097;51.984;5.650;2023-04-24T01:48:28;13.00;99.90
44823;DHT22;51097;51.984;5.650;2023-04-24T01:50:54;13.10;99.90
44823;DHT22;51097;51.984;5.650;2023-04-24T01:53:20;13.00;99.90
44823;DHT22;51097;51.984;5.650;2023-04-24T01:55:45;13.00;99.90
44823;DHT22;51097;51.984;5.650;2023-04-24T01:58:11;12.90;99.90
44823;DHT22;51097;51.984;5.650;2023-04-24T02:00:37;12.80;99.90
44823;DHT22;51097;51.984;5.650;2023-04-24T02:03:02;12.80;99.90
44823;DHT22;51097;51.984;5.650;2023-04-24T02:05:28;12.90;99.90
44823;DHT22;51097;51.984;5.650;2023-04-24T02:07:53;13.00;99.90
44823;DHT22;51097;51.984;5.650;2023-04-24T02:10:19;12.90;99.90
44823;DHT22;51097;51.984;5.650;2023-04-24T02:12:45;13.00;99.90
44823;DHT22;51097;51.984;5.650;2023-04-24T02:15:11;13.10;99.90
44823;DHT22;51097;51.984;5.650;2023-04-24T02:17:37;13.40;99.90
44823;DHT22;51097;51.984;5.650;2023-04-24T02:20:02;13.40;99.90
44823;DHT22;51097;51.984;5.650;2023-04-24T02:22:28;13.40;99.90
44823;DHT22;51097;51.984;5.650;2023-04-24T02:24:54;13.30;99.90
44823;DHT22;51097;51.984;5.650;2023-04-24T02:27:20;13.40;99.90
44823;DHT22;51097;51.984;5.650;2023-04-24T02:29:45;13.40;99.90
44823;DHT22;51097;51.984;5.650;2023-04-24T02:32:11;13.50;99.90
44823;DHT22;51097;51.984;5.650;2023-04-24T02:34:37;13.40;99.90
44823;DHT22;51097;51.984;5.650;2023-04-24T02:37:03;13.30;99.90
44823;DHT22;51097;51.984;5.650;2023-04-24T02:39:29;13.40;99.90
44823;DHT22;51097;51.984;5.650;2023-04-24T02:41:54;13.40;99.90
44823;DHT22;51097;51.984;5.650;2023-04-24T02:44:20;13.50;99.90
44823;DHT22;51097;51.984;5.650;2023-04-24T02:46:47;13.20;99.90
44823;DHT22;51097;51.984;5.650;2023-04-24T02:49:12;13.10;99.90
44823;DHT22;51097;51.984;5.650;2023-04-24T02:51:38;13.00;99.90
44823;DHT22;51097;51.984;5.650;2023-04-24T02:54:07;13.10;99.90
44823;DHT22;51097;51.984;5.650;2023-04-24T02:56:33;13.10;99.90
44823;DHT22;51097;51.984;5.650;2023-04-24T02:58:58;13.10;99.90
44823;DHT22;51097;51.984;5.650;2023-04-24T03:01:24;13.20;99.90
44823;DHT22;51097;51.984;5.650;2023-04-24T03:03:50;13.30;99.90
44823;DHT22;51097;51.984;5.650;2023-04-24T03:06:15;13.20;99.90
44823;DHT22;51097;51.984;5.650;2023-04-24T03:08:41;13.10;99.90
44823;DHT22;51097;51.984;5.650;2023-04-24T03:11:06;13.10;99.90
44823;DHT22;51097;51.984;5.650;2023-04-24T03:13:32;13.00;99.90
44823;DHT22;51097;51.984;5.650;2023-04-24T03:15:58;13.00;99.90
44823;DHT22;51097;51.984;5.650;2023-04-24T03:18:23;13.10;99.90
44823;DHT22;51097;51.984;5.650;2023-04-24T03:20:49;13.20;99.90
44823;DHT22;51097;51.984;5.650;2023-04-24T03:23:15;13.20;99.90
44823;DHT22;51097;51.984;5.650;2023-04-24T03:25:41;13.20;99.90
44823;DHT22;51097;51.984;5.650;2023-04-24T03:28:08;13.20;99.90
44823;DHT22;51097;51.984;5.650;2023-04-24T03:30:33;13.20;99.90
44823;DHT22;51097;51.984;5.650;2023-04-24T03:32:59;13.00;99.90
44823;DHT22;51097;51.984;5.650;2023-04-24T03:35:25;13.20;99.90
44823;DHT22;51097;51.984;5.650;2023-04-24T03:37:50;13.10;99.90
44823;DHT22;51097;51.984;5.650;2023-04-24T03:40:16;13.10;99.90
44823;DHT22;51097;51.984;5.650;2023-04-24T03:42:41;13.00;99.90
44823;DHT22;51097;51.984;5.650;2023-04-24T03:45:07;13.00;99.90
44823;DHT22;51097;51.984;5.650;2023-04-24T03:47:33;12.90;99.90
44823;DHT22;51097;51.984;5.650;2023-04-24T03:49:59;12.90;99.90
44823;DHT22;51097;51.984;5.650;2023-04-24T03:52:24;13.00;99.90
44823;DHT22;51097;51.984;5.650;2023-04-24T03:54:50;12.90;99.90
44823;DHT22;51097;51.984;5.650;2023-04-24T03:57:16;12.90;99.90
44823;DHT22;51097;51.984;5.650;2023-04-24T03:59:41;12.90;99.90
44823;DHT22;51097;51.984;5.650;2023-04-24T04:02:07;12.90;99.90
44823;DHT22;51097;51.984;5.650;2023-04-24T04:04:32;12.80;99.90
44823;DHT22;51097;51.984;5.650;2023-04-24T04:06:58;12.80;99.90
44823;DHT22;51097;51.984;5.650;2023-04-24T04:09:26;12.80;99.90
44823;DHT22;51097;51.984;5.650;2023-04-24T04:11:52;12.80;99.90
44823;DHT22;51097;51.984;5.650;2023-04-24T04:14:17;12.80;99.90
44823;DHT22;51097;51.984;5.650;2023-04-24T04:16:43;12.80;99.90
44823;DHT22;51097;51.984;5.650;2023-04-24T04:19:09;12.80;99.90
44823;DHT22;51097;51.984;5.650;2023-04-24T04:21:34;12.80;99.90
44823;DHT22;51097;51.984;5.650;2023-04-24T04:24:00;12.80;99.90
44823;DHT22;51097;51.984;5.650;2023-04-24T04:26:25;12.70;99.90
44823;DHT22;51097;51.984;5.650;2023-04-24T04:28:52;12.80;99.90
44823;DHT22;51097;51.984;5.650;2023-04-24T04:31:22;12.70;99.90
44823;DHT22;51097;51.984;5.650;2023-04-24T04:33:48;12.60;99.90
44823;DHT22;51097;51.984;5.650;2023-04-24T04:36:14;12.50;99.90
44823;DHT22;51097;51.984;5.650;2023-04-24T04:38:39;12.50;99.90
44823;DHT22;51097;51.984;5.650;2023-04-24T04:41:05;12.50;99.90
44823;DHT22;51097;51.984;5.650;2023-04-24T04:43:32;12.50;99.90
44823;DHT22;51097;51.984;5.650;2023-04-24T04:45:59;12.60;99.90
44823;DHT22;51097;51.984;5.650;2023-04-24T04:48:26;12.50;99.90
44823;DHT22;51097;51.984;5.650;2023-04-24T04:50:52;12.60;99.90
44823;DHT22;51097;51.984;5.650;2023-04-24T04:53:18;12.60;99.90
44823;DHT22;51097;51.984;5.650;2023-04-24T04:55:43;12.70;99.90
44823;DHT22;51097;51.984;5.650;2023-04-24T04:58:09;12.70;99.90
44823;DHT22;51097;51.984;5.650;2023-04-24T05:00:35;12.80;99.90
44823;DHT22;51097;51.984;5.650;2023-04-24T05:03:03;12.90;99.90
44823;DHT22;51097;51.984;5.650;2023-04-24T05:05:28;12.90;99.90
44823;DHT22;51097;51.984;5.650;2023-04-24T05:07:54;12.90;99.90
44823;DHT22;51097;51.984;5.650;2023-04-24T05:10:20;13.00;99.90
44823;DHT22;51097;51.984;5.650;2023-04-24T05:12:45;13.10;99.90
44823;DHT22;51097;51.984;5.650;2023-04-24T05:15:11;13.10;99.90
44823;DHT22;51097;51.984;5.650;2023-04-24T05:17:37;13.10;99.90
44823;DHT22;51097;51.984;5.650;2023-04-24T05:20:03;13.10;99.90
44823;DHT22;51097;51.984;5.650;2023-04-24T05:22:32;13.10;99.90
44823;DHT22;51097;51.984;5.650;2023-04-24T05:24:58;13.10;99.90
44823;DHT22;51097;51.984;5.650;2023-04-24T05:27:24;13.10;99.90
44823;DHT22;51097;51.984;5.650;2023-04-24T05:29:50;13.10;99.90
44823;DHT22;51097;51.984;5.650;2023-04-24T05:32:16;13.10;99.90
44823;DHT22;51097;51.984;5.650;2023-04-24T05:34:41;13.20;99.90
44823;DHT22;51097;51.984;5.650;2023-04-24T05:37:07;13.20;99.90
44823;DHT22;51097;51.984;5.650;2023-04-24T05:39:35;13.20;99.90
44823;DHT22;51097;51.984;5.650;2023-04-24T05:42:01;13.20;99.90
44823;DHT22;51097;51.984;5.650;2023-04-24T05:44:27;13.30;99.90
44823;DHT22;51097;51.984;5.650;2023-04-24T05:46:52;13.30;99.90
44823;DHT22;51097;51.984;5.650;2023-04-24T05:49:18;13.30;99.90
44823;DHT22;51097;51.984;5.650;2023-04-24T05:51:44;13.40;99.90
44823;DHT22;51097;51.984;5.650;2023-04-24T05:54:10;13.40;99.90
44823;DHT22;51097;51.984;5.650;2023-04-24T05:56:37;13.50;99.90
44823;DHT22;51097;51.984;5.650;2023-04-24T05:59:03;13.50;99.90
44823;DHT22;51097;51.984;5.650;2023-04-24T06:01:29;13.60;99.90
44823;DHT22;51097;51.984;5.650;2023-04-24T06:03:55;13.60;99.90
44823;DHT22;51097;51.984;5.650;2023-04-24T06:06:20;13.60;99.90
44823;DHT22;51097;51.984;5.650;2023-04-24T06:08:46;13.70;99.90
44823;DHT22;51097;51.984;5.650;2023-04-24T06:11:11;13.70;99.90
44823;DHT22;51097;51.984;5.650;2023-04-24T06:13:37;13.80;99.90
44823;DHT22;51097;51.984;5.650;2023-04-24T06:16:02;13.70;99.90
44823;DHT22;51097;51.984;5.650;2023-04-24T06:18:28;13.90;99.90
44823;DHT22;51097;51.984;5.650;2023-04-24T06:20:54;13.90;99.90
44823;DHT22;51097;51.984;5.650;2023-04-24T06:23:20;13.90;99.90
44823;DHT22;51097;51.984;5.650;2023-04-24T06:25:46;13.90;99.90
44823;DHT22;51097;51.984;5.650;2023-04-24T06:28:12;13.90;99.90
44823;DHT22;51097;51.984;5.650;2023-04-24T06:30:38;13.90;99.90
44823;DHT22;51097;51.984;5.650;2023-04-24T06:33:03;14.00;99.90
44823;DHT22;51097;51.984;5.650;2023-04-24T06:35:29;14.00;99.90
44823;DHT22;51097;51.984;5.650;2023-04-24T06:37:54;14.00;99.90
44823;DHT22;51097;51.984;5.650;2023-04-24T06:40:21;13.90;99.90
44823;DHT22;51097;51.984;5.650;2023-04-24T06:42:47;14.00;99.90
44823;DHT22;51097;51.984;5.650;2023-04-24T06:45:13;13.90;99.90
44823;DHT22;51097;51.984;5.650;2023-04-24T06:47:38;14.00;99.90
44823;DHT22;51097;51.984;5.650;2023-04-24T06:50:04;13.80;99.90
44823;DHT22;51097;51.984;5.650;2023-04-24T06:52:30;13.80;99.90
44823;DHT22;51097;51.984;5.650;2023-04-24T06:55:02;13.80;99.90
44823;DHT22;51097;51.984;5.650;2023-04-24T06:57:28;13.80;99.90
44823;DHT22;51097;51.984;5.650;2023-04-24T06:59:54;13.80;99.90
44823;DHT22;51097;51.984;5.650;2023-04-24T07:02:19;13.60;99.90
44823;DHT22;51097;51.984;5.650;2023-04-24T07:04:45;13.50;99.90
44823;DHT22;51097;51.984;5.650;2023-04-24T07:07:12;13.30;99.90
44823;DHT22;51097;51.984;5.650;2023-04-24T07:09:39;13.30;99.90
44823;DHT22;51097;51.984;5.650;2023-04-24T07:12:06;13.20;99.90
44823;DHT22;51097;51.984;5.650;2023-04-24T07:14:32;13.20;99.90
44823;DHT22;51097;51.984;5.650;2023-04-24T07:16:58;13.10;99.90
44823;DHT22;51097;51.984;5.650;2023-04-24T07:19:23;13.10;99.90
44823;DHT22;51097;51.984;5.650;2023-04-24T07:21:49;13.00;99.90
44823;DHT22;51097;51.984;5.650;2023-04-24T07:24:15;12.90;99.90
44823;DHT22;51097;51.984;5.650;2023-04-24T07:26:41;12.90;99.90
44823;DHT22;51097;51.984;5.650;2023-04-24T07:29:07;12.80;99.90
44823;DHT22;51097;51.984;5.650;2023-04-24T07:31:33;12.60;99.90
44823;DHT22;51097;51.984;5.650;2023-04-24T07:33:58;12.70;99.90
44823;DHT22;51097;51.984;5.650;2023-04-24T07:36:24;12.70;99.90
44823;DHT22;51097;51.984;5.650;2023-04-24T07:38:51;12.80;99.90
44823;DHT22;51097;51.984;5.650;2023-04-24T07:41:16;12.70;99.90
44823;DHT22;51097;51.984;5.650;2023-04-24T07:43:42;12.70;99.90
44823;DHT22;51097;51.984;5.650;2023-04-24T07:46:10;12.70;99.90
44823;DHT22;51097;51.984;5.650;2023-04-24T07:48:36;12.50;99.90
44823;DHT22;51097;51.984;5.650;2023-04-24T07:51:02;12.50;99.90
44823;DHT22;51097;51.984;5.650;2023-04-24T07:53:28;12.40;99.90
44823;DHT22;51097;51.984;5.650;2023-04-24T07:55:55;12.40;99.90
44823;DHT22;51097;51.984;5.650;2023-04-24T07:58:21;12.30;99.90
44823;DHT22;51097;51.984;5.650;2023-04-24T08:00:46;12.30;99.90
44823;DHT22;51097;51.984;5.650;2023-04-24T08:03:12;12.40;99.90
44823;DHT22;51097;51.984;5.650;2023-04-24T08:05:38;12.20;99.90
44823;DHT22;51097;51.984;5.650;2023-04-24T08:08:04;12.30;99.90
44823;DHT22;51097;51.984;5.650;2023-04-24T08:10:32;12.30;99.90
44823;DHT22;51097;51.984;5.650;2023-04-24T08:12:58;12.40;99.90
44823;DHT22;51097;51.984;5.650;2023-04-24T08:15:24;12.50;99.90
44823;DHT22;51097;51.984;5.650;2023-04-24T08:17:50;12.40;99.90
44823;DHT22;51097;51.984;5.650;2023-04-24T08:20:15;12.40;99.90
44823;DHT22;51097;51.984;5.650;2023-04-24T08:22:42;12.50;99.90
44823;DHT22;51097;51.984;5.650;2023-04-24T08:25:08;12.40;99.90
44823;DHT22;51097;51.984;5.650;2023-04-24T08:27:34;12.50;99.90
44823;DHT22;51097;51.984;5.650;2023-04-24T08:30:02;12.50;99.90
44823;DHT22;51097;51.984;5.650;2023-04-24T08:32:28;12.50;99.90
44823;DHT22;51097;51.984;5.650;2023-04-24T08:34:54;12.50;99.90
44823;DHT22;51097;51.984;5.650;2023-04-24T08:37:22;12.40;99.90
44823;DHT22;51097;51.984;5.650;2023-04-24T08:39:47;12.50;99.90
44823;DHT22;51097;51.984;5.650;2023-04-24T08:42:13;12.60;99.90
44823;DHT22;51097;51.984;5.650;2023-04-24T08:44:40;12.60;99.90
44823;DHT22;51097;51.984;5.650;2023-04-24T08:47:07;12.60;99.90
44823;DHT22;51097;51.984;5.650;2023-04-24T08:49:33;12.50;99.90
44823;DHT22;51097;51.984;5.650;2023-04-24T08:52:02;12.40;99.90
44823;DHT22;51097;51.984;5.650;2023-04-24T08:54:28;12.30;99.90
44823;DHT22;51097;51.984;5.650;2023-04-24T08:56:56;12.30;99.90
44823;DHT22;51097;51.984;5.650;2023-04-24T08:59:23;12.30;99.90
44823;DHT22;51097;51.984;5.650;2023-04-24T09:01:51;12.40;99.90
44823;DHT22;51097;51.984;5.650;2023-04-24T09:04:17;12.30;99.90
44823;DHT22;51097;51.984;5.650;2023-04-24T09:06:56;12.40;99.90
44823;DHT22;51097;51.984;5.650;2023-04-24T09:09:23;12.50;99.90
44823;DHT22;51097;51.984;5.650;2023-04-24T09:11:50;12.40;99.90
44823;DHT22;51097;51.984;5.650;2023-04-24T09:14:16;12.40;99.90
44823;DHT22;51097;51.984;5.650;2023-04-24T09:16:42;12.40;99.90
44823;DHT22;51097;51.984;5.650;2023-04-24T09:19:08;12.40;99.90
44823;DHT22;51097;51.984;5.650;2023-04-24T09:21:35;12.40;99.90
44823;DHT22;51097;51.984;5.650;2023-04-24T09:24:07;12.40;99.90
44823;DHT22;51097;51.984;5.650;2023-04-24T09:26:36;12.40;99.90
44823;DHT22;51097;51.984;5.650;2023-04-24T09:29:03;12.40;99.90
44823;DHT22;51097;51.984;5.650;2023-04-24T09:31:29;12.50;99.90
44823;DHT22;51097;51.984;5.650;2023-04-24T09:33:59;12.50;99.90
44823;DHT22;51097;51.984;5.650;2023-04-24T09:36:33;12.60;99.90
44823;DHT22;51097;51.984;5.650;2023-04-24T09:39:00;12.80;99.90
44823;DHT22;51097;51.984;5.650;2023-04-24T09:41:27;12.80;99.90
44823;DHT22;51097;51.984;5.650;2023-04-24T09:43:57;12.80;99.90
44823;DHT22;51097;51.984;5.650;2023-04-24T09:46:30;12.70;99.90
44823;DHT22;51097;51.984;5.650;2023-04-24T09:49:20;12.50;99.90
44823;DHT22;51097;51.984;5.650;2023-04-24T09:51:45;12.50;99.90
44823;DHT22;51097;51.984;5.650;2023-04-24T09:54:16;12.40;99.90
44823;DHT22;51097;51.984;5.650;2023-04-24T09:56:43;12.60;99.90
44823;DHT22;51097;51.984;5.650;2023-04-24T09:59:10;12.70;99.90
44823;DHT22;51097;51.984;5.650;2023-04-24T10:01:35;12.90;99.90
44823;DHT22;51097;51.984;5.650;2023-04-24T10:04:03;13.20;99.90
44823;DHT22;51097;51.984;5.650;2023-04-24T10:06:35;13.30;99.90
44823;DHT22;51097;51.984;5.650;2023-04-24T10:09:02;13.30;99.90
44823;DHT22;51097;51.984;5.650;2023-04-24T10:11:29;13.40;99.90
44823;DHT22;51097;51.984;5.650;2023-04-24T10:13:58;13.60;99.90
44823;DHT22;51097;51.984;5.650;2023-04-24T10:16:24;13.70;99.90
44823;DHT22;51097;51.984;5.650;2023-04-24T10:18:52;13.80;99.90
44823;DHT22;51097;51.984;5.650;2023-04-24T10:21:18;13.90;99.90
44823;DHT22;51097;51.984;5.650;2023-04-24T10:23:44;14.10;99.90
44823;DHT22;51097;51.984;5.650;2023-04-24T10:26:16;14.20;99.90
44823;DHT22;51097;51.984;5.650;2023-04-24T10:28:47;14.30;99.90
44823;DHT22;51097;51.984;5.650;2023-04-24T10:31:14;14.30;99.90
44823;DHT22;51097;51.984;5.650;2023-04-24T10:33:43;14.30;99.90
44823;DHT22;51097;51.984;5.650;2023-04-24T10:36:11;14.30;99.90
44823;DHT22;51097;51.984;5.650;2023-04-24T10:38:40;14.40;99.90
44823;DHT22;51097;51.984;5.650;2023-04-24T10:41:08;14.30;99.90
44823;DHT22;51097;51.984;5.650;2023-04-24T10:43:35;14.30;99.90
44823;DHT22;51097;51.984;5.650;2023-04-24T10:46:05;14.30;99.90
44823;DHT22;51097;51.984;5.650;2023-04-24T10:48:32;14.30;99.90
44823;DHT22;51097;51.984;5.650;2023-04-24T10:50:58;14.20;99.90
44823;DHT22;51097;51.984;5.650;2023-04-24T10:53:29;14.20;99.90
44823;DHT22;51097;51.984;5.650;2023-04-24T10:56:07;14.10;99.90
44823;DHT22;51097;51.984;5.650;2023-04-24T10:58:40;14.00;99.90
44823;DHT22;51097;51.984;5.650;2023-04-24T11:01:06;14.00;99.90
44823;DHT22;51097;51.984;5.650;2023-04-24T11:03:34;14.10;99.90
44823;DHT22;51097;51.984;5.650;2023-04-24T11:06:06;14.10;99.90
44823;DHT22;51097;51.984;5.650;2023-04-24T11:14:00;14.40;99.90
44823;DHT22;51097;51.984;5.650;2023-04-24T11:16:37;14.40;99.90
44823;DHT22;51097;51.984;5.650;2023-04-24T11:19:06;14.40;99.90
44823;DHT22;51097;51.984;5.650;2023-04-24T11:24:32;14.50;99.90
44823;DHT22;51097;51.984;5.650;2023-04-24T11:27:06;14.60;99.90
44823;DHT22;51097;51.984;5.650;2023-04-24T11:29:44;14.70;99.90
44823;DHT22;51097;51.984;5.650;2023-04-24T11:34:51;14.90;99.90
44823;DHT22;51097;51.984;5.650;2023-04-24T11:37:17;15.10;99.90
44823;DHT22;51097;51.984;5.650;2023-04-24T11:39:43;15.10;99.90
44823;DHT22;51097;51.984;5.650;2023-04-24T11:42:09;15.10;99.90
44823;DHT22;51097;51.984;5.650;2023-04-24T11:44:35;15.40;99.90
44823;DHT22;51097;51.984;5.650;2023-04-24T11:47:08;15.40;99.90
44823;DHT22;51097;51.984;5.650;2023-04-24T11:49:33;15.30;99.90
44823;DHT22;51097;51.984;5.650;2023-04-24T11:52:02;15.40;99.90
44823;DHT22;51097;51.984;5.650;2023-04-24T11:54:28;15.40;99.90
44823;DHT22;51097;51.984;5.650;2023-04-24T11:56:54;15.20;99.90
44823;DHT22;51097;51.984;5.650;2023-04-24T11:59:19;15.00;99.90
44823;DHT22;51097;51.984;5.650;2023-04-24T12:01:49;14.80;99.90
44823;DHT22;51097;51.984;5.650;2023-04-24T12:04:16;14.60;99.90
44823;DHT22;51097;51.984;5.650;2023-04-24T12:07:04;14.40;99.90
44823;DHT22;51097;51.984;5.650;2023-04-24T12:09:43;14.40;99.90
44823;DHT22;51097;51.984;5.650;2023-04-24T12:12:09;14.30;99.90
44823;DHT22;51097;51.984;5.650;2023-04-24T12:14:49;14.30;99.90
44823;DHT22;51097;51.984;5.650;2023-04-24T12:17:16;14.30;99.90
44823;DHT22;51097;51.984;5.650;2023-04-24T12:19:48;14.30;99.90
44823;DHT22;51097;51.984;5.650;2023-04-24T12:22:14;14.20;99.90
44823;DHT22;51097;51.984;5.650;2023-04-24T12:25:00;14.20;99.90
44823;DHT22;51097;51.984;5.650;2023-04-24T12:27:29;14.30;99.90
44823;DHT22;51097;51.984;5.650;2023-04-24T12:29:59;14.30;99.90
44823;DHT22;51097;51.984;5.650;2023-04-24T12:32:25;14.50;99.90
44823;DHT22;51097;51.984;5.650;2023-04-24T12:34:52;14.50;99.90
44823;DHT22;51097;51.984;5.650;2023-04-24T12:37:18;14.70;99.90
44823;DHT22;51097;51.984;5.650;2023-04-24T12:40:05;15.00;99.90
44823;DHT22;51097;51.984;5.650;2023-04-24T12:42:31;15.00;99.90
44823;DHT22;51097;51.984;5.650;2023-04-24T12:45:05;15.00;99.90
44823;DHT22;51097;51.984;5.650;2023-04-24T12:47:32;14.90;99.90
44823;DHT22;51097;51.984;5.650;2023-04-24T12:49:58;14.80;99.90
44823;DHT22;51097;51.984;5.650;2023-04-24T12:52:25;14.70;99.90
44823;DHT22;51097;51.984;5.650;2023-04-24T12:54:53;14.90;99.90
44823;DHT22;51097;51.984;5.650;2023-04-24T12:57:21;14.90;99.90
44823;DHT22;51097;51.984;5.650;2023-04-24T12:59:47;15.00;99.90
44823;DHT22;51097;51.984;5.650;2023-04-24T13:02:12;14.90;99.90
44823;DHT22;51097;51.984;5.650;2023-04-24T13:04:38;15.00;99.90
44823;DHT22;51097;51.984;5.650;2023-04-24T13:07:05;15.00;99.90
44823;DHT22;51097;51.984;5.650;2023-04-24T13:09:30;15.00;99.90
44823;DHT22;51097;51.984;5.650;2023-04-24T13:11:56;15.20;99.90
44823;DHT22;51097;51.984;5.650;2023-04-24T13:14:22;15.10;99.90
44823;DHT22;51097;51.984;5.650;2023-04-24T13:16:48;15.10;99.90
44823;DHT22;51097;51.984;5.650;2023-04-24T13:19:14;15.20;99.90
44823;DHT22;51097;51.984;5.650;2023-04-24T13:21:40;15.10;99.90
44823;DHT22;51097;51.984;5.650;2023-04-24T13:24:06;15.10;99.90
44823;DHT22;51097;51.984;5.650;2023-04-24T13:26:33;15.10;99.90
44823;DHT22;51097;51.984;5.650;2023-04-24T13:28:59;15.10;99.90
44823;DHT22;51097;51.984;5.650;2023-04-24T13:31:24;15.10;99.90
44823;DHT22;51097;51.984;5.650;2023-04-24T13:33:50;15.30;99.90
44823;DHT22;51097;51.984;5.650;2023-04-24T13:36:15;15.10;99.90
44823;DHT22;51097;51.984;5.650;2023-04-24T13:38:43;15.20;99.90
44823;DHT22;51097;51.984;5.650;2023-04-24T13:41:08;15.20;99.90
44823;DHT22;51097;51.984;5.650;2023-04-24T13:43:34;15.30;99.90
44823;DHT22;51097;51.984;5.650;2023-04-24T13:46:00;15.30;99.90
44823;DHT22;51097;51.984;5.650;2023-04-24T13:48:28;15.30;99.90
44823;DHT22;51097;51.984;5.650;2023-04-24T13:50:54;15.60;99.90
44823;DHT22;51097;51.984;5.650;2023-04-24T13:53:19;16.00;99.90
44823;DHT22;51097;51.984;5.650;2023-04-24T13:55:45;16.10;99.90
44823;DHT22;51097;51.984;5.650;2023-04-24T13:58:10;16.20;99.90
44823;DHT22;51097;51.984;5.650;2023-04-24T14:00:36;16.40;99.90
44823;DHT22;51097;51.984;5.650;2023-04-24T14:03:02;16.80;99.90
44823;DHT22;51097;51.984;5.650;2023-04-24T14:05:27;17.00;99.90
44823;DHT22;51097;51.984;5.650;2023-04-24T14:07:53;17.10;99.90
44823;DHT22;51097;51.984;5.650;2023-04-24T14:10:18;17.20;99.90
44823;DHT22;51097;51.984;5.650;2023-04-24T14:12:44;17.30;99.90
44823;DHT22;51097;51.984;5.650;2023-04-24T14:15:10;17.30;99.90
44823;DHT22;51097;51.984;5.650;2023-04-24T14:17:36;17.40;99.90
44823;DHT22;51097;51.984;5.650;2023-04-24T14:20:02;17.40;99.90
44823;DHT22;51097;51.984;5.650;2023-04-24T14:22:29;17.30;99.90
44823;DHT22;51097;51.984;5.650;2023-04-24T14:24:54;17.20;99.90
44823;DHT22;51097;51.984;5.650;2023-04-24T14:27:20;17.40;99.90
44823;DHT22;51097;51.984;5.650;2023-04-24T14:29:45;17.30;99.90
44823;DHT22;51097;51.984;5.650;2023-04-24T14:32:11;17.30;99.90
44823;DHT22;51097;51.984;5.650;2023-04-24T14:34:36;17.30;99.90
44823;DHT22;51097;51.984;5.650;2023-04-24T14:37:02;17.10;99.90
44823;DHT22;51097;51.984;5.650;2023-04-24T14:39:28;17.30;99.90
44823;DHT22;51097;51.984;5.650;2023-04-24T14:41:54;17.20;99.90
44823;DHT22;51097;51.984;5.650;2023-04-24T14:44:20;17.10;99.90
44823;DHT22;51097;51.984;5.650;2023-04-24T14:46:45;17.10;99.90
44823;DHT22;51097;51.984;5.650;2023-04-24T14:49:11;16.80;99.90
44823;DHT22;51097;51.984;5.650;2023-04-24T14:51:37;16.90;99.90
44823;DHT22;51097;51.984;5.650;2023-04-24T14:54:03;16.80;99.90
44823;DHT22;51097;51.984;5.650;2023-04-24T14:56:29;16.80;99.90
44823;DHT22;51097;51.984;5.650;2023-04-24T14:58:55;16.80;99.90
44823;DHT22;51097;51.984;5.650;2023-04-24T15:01:20;16.90;99.90
44823;DHT22;51097;51.984;5.650;2023-04-24T15:03:46;16.80;99.90
44823;DHT22;51097;51.984;5.650;2023-04-24T15:06:12;16.90;99.90
44823;DHT22;51097;51.984;5.650;2023-04-24T15:08:37;16.70;99.90
44823;DHT22;51097;51.984;5.650;2023-04-24T15:11:03;16.70;99.90
44823;DHT22;51097;51.984;5.650;2023-04-24T15:13:29;16.60;99.90
44823;DHT22;51097;51.984;5.650;2023-04-24T15:15:54;16.40;99.90
44823;DHT22;51097;51.984;5.650;2023-04-24T15:18:20;16.10;99.90
44823;DHT22;51097;51.984;5.650;2023-04-24T15:20:45;16.20;99.90
44823;DHT22;51097;51.984;5.650;2023-04-24T15:23:11;16.10;99.90
44823;DHT22;51097;51.984;5.650;2023-04-24T15:25:37;16.10;99.90
44823;DHT22;51097;51.984;5.650;2023-04-24T15:28:03;16.00;99.90
44823;DHT22;51097;51.984;5.650;2023-04-24T15:30:30;16.00;99.90
44823;DHT22;51097;51.984;5.650;2023-04-24T15:32:56;16.00;99.90
44823;DHT22;51097;51.984;5.650;2023-04-24T15:35:22;15.90;99.90
44823;DHT22;51097;51.984;5.650;2023-04-24T15:37:48;15.70;99.90